Time;durP1;ratioP1;P1;durP2;ratioP2;P2;SDS_P1;SDS_P2;PMS_P1;PMS_P2;Temp;Humidity;BMP_temperature;BMP_pressure;BME280_temperature;BME280_humidity;BME280_pressure;Samples;Min_cycle;Max_cycle;Signal;HPM_P1;HPM_P2
2021/11/27 00:00:23;;;;;;;3.58;0.43;;;;;;;12.35;48.09;97335.75;4427162;32;20081;-69
2021/11/27 00:02:49;;;;;;;0.85;0.20;;;;;;;11.75;48.73;97323.91;4429176;32;20790;-69
2021/11/27 00:05:17;;;;;;;1.10;0.25;;;;;;;11.58;48.83;97320.47;4427142;32;20096;-69
2021/11/27 00:07:44;;;;;;;1.23;0.20;;;;;;;11.68;48.84;97361.09;4426708;32;20125;-69
2021/11/27 00:10:14;;;;;;;1.23;0.30;;;;;;;11.53;49.24;97355.06;4426380;32;20392;-69
2021/11/27 00:12:39;;;;;;;4.30;0.43;;;;;;;11.90;48.75;97374.19;4425091;32;20715;-69
2021/11/27 00:15:07;;;;;;;2.50;0.30;;;;;;;11.62;49.11;97385.75;4426591;32;20122;-69
2021/11/27 00:17:36;;;;;;;2.08;0.20;;;;;;;10.89;50.69;97380.44;4425522;32;20505;-69
2021/11/27 00:20:04;;;;;;;0.95;0.20;;;;;;;11.57;49.59;97402.66;4423809;32;20140;-69
2021/11/27 00:22:30;;;;;;;0.60;0.22;;;;;;;11.84;48.98;97415.72;4426764;32;20073;-69
2021/11/27 00:24:56;;;;;;;2.78;0.40;;;;;;;11.58;49.40;97407.78;4426753;32;20106;-69
2021/11/27 00:27:22;;;;;;;0.90;0.20;;;;;;;11.56;49.29;97418.00;4425605;32;20069;-69
2021/11/27 00:29:48;;;;;;;1.75;0.30;;;;;;;11.44;49.33;97430.66;4424485;32;20077;-69
2021/11/27 00:32:13;;;;;;;1.42;0.50;;;;;;;10.64;51.09;97426.56;4426609;32;20426;-69
2021/11/27 00:34:40;;;;;;;4.75;0.40;;;;;;;11.56;48.84;97446.94;4428551;32;20064;-69
2021/11/27 00:37:06;;;;;;;0.98;0.25;;;;;;;11.55;48.72;97450.28;4426720;32;20041;-69
2021/11/27 00:39:32;;;;;;;1.25;0.20;;;;;;;11.35;48.83;97454.25;4426552;32;20125;-69
2021/11/27 00:41:58;;;;;;;0.55;0.20;;;;;;;11.64;48.50;97447.94;4428431;32;20077;-68
2021/11/27 00:44:24;;;;;;;2.30;0.40;;;;;;;11.45;48.84;97458.28;4426785;32;20412;-69
2021/11/27 00:46:51;;;;;;;1.17;0.20;;;;;;;11.39;49.27;97496.22;4426779;32;20073;-69
2021/11/27 00:49:18;;;;;;;1.75;0.20;;;;;;;11.60;48.92;97494.53;4425359;32;20030;-69
2021/11/27 00:51:44;;;;;;;4.65;0.43;;;;;;;11.56;48.37;97500.44;4425931;32;20504;-68
2021/11/27 00:54:10;;;;;;;3.72;0.43;;;;;;;11.38;49.10;97509.53;4425345;32;20034;-68
2021/11/27 00:56:36;;;;;;;3.28;0.40;;;;;;;11.63;48.75;97527.31;4431314;32;20049;-68
2021/11/27 00:59:02;;;;;;;5.75;0.40;;;;;;;11.07;50.34;97529.66;4429838;32;20096;-68
2021/11/27 01:01:31;;;;;;;6.22;0.50;;;;;;;10.84;51.41;97542.31;4430532;32;20045;-68
2021/11/27 01:03:58;;;;;;;7.68;1.30;;;;;;;11.35;50.66;97549.97;4429062;32;20112;-68
2021/11/27 01:06:27;;;;;;;2.85;0.60;;;;;;;11.43;50.32;97550.19;4429415;32;20073;-68
2021/11/27 01:08:59;;;;;;;4.47;0.75;;;;;;;11.76;49.91;97564.84;4430065;32;20382;-68
2021/11/27 01:11:30;;;;;;;6.68;0.75;;;;;;;11.25;50.62;97562.81;4428342;32;20502;-68
2021/11/27 01:14:00;;;;;;;5.55;0.68;;;;;;;12.01;49.21;97572.09;4428940;32;20418;-68
2021/11/27 01:16:30;;;;;;;3.80;0.68;;;;;;;11.90;49.62;97562.94;4428210;32;20083;-68
2021/11/27 01:18:56;;;;;;;6.47;0.65;;;;;;;11.77;49.95;97563.56;4426929;32;20084;-68
2021/11/27 01:21:26;;;;;;;6.60;0.55;;;;;;;11.38;50.34;97565.81;4429381;32;20073;-68
2021/11/27 01:23:54;;;;;;;3.05;0.40;;;;;;;11.57;50.24;97568.81;4428059;32;20382;-68
2021/11/27 01:26:20;;;;;;;2.67;0.43;;;;;;;11.80;49.77;97595.53;4429230;32;20181;-68
2021/11/27 01:28:46;;;;;;;4.30;0.40;;;;;;;11.49;50.31;97604.41;4415234;32;20076;-68
2021/11/27 01:31:12;;;;;;;5.68;0.50;;;;;;;11.05;51.50;97613.81;4428373;32;20450;-68
2021/11/27 01:33:39;;;;;;;5.53;0.80;;;;;;;11.22;51.51;97614.53;4426500;32;20182;-68
2021/11/27 01:36:06;;;;;;;4.10;0.65;;;;;;;11.09;51.80;97613.56;4428857;32;20061;-68
2021/11/27 01:38:33;;;;;;;3.55;0.60;;;;;;;11.43;50.94;97612.12;4429288;32;20107;-68
2021/11/27 01:41:00;;;;;;;2.42;0.50;;;;;;;11.68;50.50;97617.38;4431501;32;20052;-68
2021/11/27 01:43:27;;;;;;;6.62;0.80;;;;;;;11.79;50.32;97610.94;4428420;32;20038;-68
2021/11/27 01:45:54;;;;;;;5.68;0.70;;;;;;;11.88;49.90;97617.00;4427553;32;20077;-68
2021/11/27 01:48:21;;;;;;;2.50;0.55;;;;;;;11.89;49.27;97626.22;4427465;32;20074;-68
2021/11/27 01:53:30;;;;;;;2.30;0.50;;;;;;;11.96;49.60;97660.25;3977577;32;15116828;-68
2021/11/27 01:56:00;;;;;;;2.62;0.20;;;;;;;11.96;49.60;97660.25;4436523;32;20458;-68
2021/11/27 01:58:27;;;;;;;1.15;0.20;;;;;;;11.66;50.17;97664.28;4434512;32;20038;-68
2021/11/27 02:00:57;;;;;;;1.30;0.40;;;;;;;11.39;50.59;97679.19;4437010;32;20025;-68
2021/11/27 02:03:23;;;;;;;1.52;0.20;;;;;;;11.51;50.33;97689.88;4436823;32;20091;-68
2021/11/27 02:05:49;;;;;;;2.53;0.28;;;;;;;10.73;51.84;97699.81;4435415;32;20024;-68
2021/11/27 02:08:16;;;;;;;1.05;0.13;;;;;;;11.31;50.61;97681.00;4435310;32;20068;-68
2021/11/27 02:10:45;;;;;;;0.77;0.20;;;;;;;11.00;50.94;97670.09;4435268;32;20030;-68
2021/11/27 02:13:12;;;;;;;1.23;0.30;;;;;;;11.23;50.49;97694.84;4436967;32;20025;-68
2021/11/27 02:15:38;;;;;;;0.57;0.10;;;;;;;11.12;50.62;97705.38;4435941;32;20067;-68
2021/11/27 02:18:04;;;;;;;2.28;0.10;;;;;;;11.18;50.69;97706.13;4434815;32;20080;-68
2021/11/27 02:20:39;;;;;;;3.97;0.20;;;;;;;11.05;50.85;97714.34;4436006;32;20037;-68
2021/11/27 02:23:06;;;;;;;;;;;;;;;11.51;49.63;97701.16;4437526;32;20425;-68
2021/11/27 02:25:32;;;;;;;1.30;0.20;;;;;;;11.56;49.56;97713.66;4435866;32;20111;-68
2021/11/27 02:28:00;;;;;;;1.87;0.22;;;;;;;11.15;50.48;97710.75;4436073;32;20205;-68
2021/11/27 02:30:29;;;;;;;1.17;0.30;;;;;;;11.15;50.45;97724.03;4432814;32;20061;-68
2021/11/27 02:32:55;;;;;;;3.35;0.50;;;;;;;10.47;52.43;97729.47;4435207;32;20462;-68
2021/11/27 02:35:24;;;;;;;1.65;0.28;;;;;;;11.18;50.90;97756.78;4437944;32;20059;-67
2021/11/27 02:37:51;;;;;;;1.10;0.30;;;;;;;10.74;51.36;97751.97;4433152;32;20125;-67
2021/11/27 02:40:18;;;;;;;3.60;0.30;;;;;;;10.69;52.36;97743.53;4436978;32;20376;-67
2021/11/27 02:42:45;;;;;;;2.35;0.40;;;;;;;10.40;53.03;97766.53;4435993;32;20038;-67
2021/11/27 02:45:13;;;;;;;0.55;0.28;;;;;;;10.87;52.22;97790.84;4439640;32;20133;-68
2021/11/27 02:47:40;;;;;;;3.08;0.30;;;;;;;10.45;53.12;97800.25;4435861;32;20021;-68
2021/11/27 02:50:08;;;;;;;1.45;0.30;;;;;;;11.09;52.07;97819.72;4431129;32;20045;-68
2021/11/27 02:52:35;;;;;;;1.02;0.17;;;;;;;11.03;51.90;97835.06;4437431;32;20123;-68
2021/11/27 02:55:00;;;;;;;1.45;0.17;;;;;;;11.21;51.39;97828.94;4435272;32;20046;-68
2021/11/27 02:57:29;;;;;;;0.73;0.10;;;;;;;11.04;51.65;97828.94;4439348;32;20032;-68
2021/11/27 02:59:56;;;;;;;2.30;0.17;;;;;;;11.21;51.42;97855.03;4433527;32;20064;-68
2021/11/27 03:02:21;;;;;;;2.47;0.10;;;;;;;11.10;50.71;97857.84;4433942;32;20084;-68
2021/11/27 03:04:49;;;;;;;1.27;0.28;;;;;;;11.32;50.84;97865.53;4419567;32;20415;-67
2021/11/27 03:07:15;;;;;;;0.57;0.10;;;;;;;10.93;51.20;97871.16;4422841;32;20041;-67
2021/11/27 03:09:41;;;;;;;0.37;0.10;;;;;;;11.15;50.99;97890.09;4427286;32;20095;-67
2021/11/27 03:12:07;;;;;;;2.72;0.10;;;;;;;10.84;51.46;97884.69;4425847;32;20033;-67
2021/11/27 03:14:33;;;;;;;1.50;0.30;;;;;;;11.05;50.67;97894.44;4424367;32;20025;-67
2021/11/27 03:17:00;;;;;;;2.58;0.20;;;;;;;10.90;50.97;97891.84;4424621;32;20364;-68
2021/11/27 03:19:27;;;;;;;3.90;0.40;;;;;;;10.54;51.88;97908.88;4424724;32;20206;-68
2021/11/27 03:21:53;;;;;;;1.33;0.30;;;;;;;10.82;51.49;97924.56;4425542;32;20052;-68
2021/11/27 03:24:18;;;;;;;1.48;0.20;;;;;;;10.48;52.49;97927.78;4424326;32;20078;-67
2021/11/27 03:26:44;;;;;;;0.60;0.30;;;;;;;10.78;51.86;97929.69;4426030;32;20493;-67
2021/11/27 03:29:10;;;;;;;1.55;0.30;;;;;;;10.59;52.44;97951.09;4420457;32;20026;-67
2021/11/27 03:31:36;;;;;;;1.25;0.20;;;;;;;10.60;52.66;97947.00;4425308;32;20017;-67
2021/11/27 03:34:01;;;;;;;2.60;0.30;;;;;;;10.42;53.11;97963.53;4425618;32;20097;-66
2021/11/27 03:36:28;;;;;;;3.33;0.50;;;;;;;10.58;52.95;97971.28;4427669;32;20033;-66
2021/11/27 03:38:53;;;;;;;1.08;0.10;;;;;;;10.48;52.89;97976.34;4422164;32;20648;-66
2021/11/27 03:41:19;;;;;;;1.58;0.15;;;;;;;10.18;53.35;97999.69;4426553;32;20094;-67
2021/11/27 03:43:45;;;;;;;0.55;0.20;;;;;;;10.12;53.32;98004.50;4425137;32;20426;-67
2021/11/27 03:46:11;;;;;;;1.02;0.22;;;;;;;10.49;51.76;98010.84;4417050;32;20521;-67
2021/11/27 03:48:40;;;;;;;4.50;0.50;;;;;;;9.42;53.82;98012.63;4423899;32;20399;-67
2021/11/27 03:51:11;;;;;;;1.15;0.43;;;;;;;9.37;54.72;98028.13;4427401;32;20017;-67
2021/11/27 03:53:38;;;;;;;1.48;0.65;;;;;;;10.07;52.85;98040.47;4426323;32;20072;-67
2021/11/27 03:56:08;;;;;;;4.82;0.70;;;;;;;10.18;52.38;98053.84;4421129;32;20073;-67
2021/11/27 03:58:34;;;;;;;4.47;0.85;;;;;;;10.07;53.09;98054.53;4424379;32;21010;-67
2021/11/27 04:01:04;;;;;;;1.50;0.47;;;;;;;9.68;54.25;98050.63;4416372;32;20168;-67
2021/11/27 04:03:30;;;;;;;2.12;0.28;;;;;;;9.85;54.25;98056.38;4423448;32;20067;-67
2021/11/27 04:05:59;;;;;;;2.92;0.50;;;;;;;9.60;54.79;98066.34;4424782;32;20034;-67
2021/11/27 04:08:25;;;;;;;1.42;0.35;;;;;;;9.98;54.03;98087.63;4421259;32;20069;-67
2021/11/27 04:10:51;;;;;;;2.30;0.52;;;;;;;9.67;54.33;98101.66;4423662;32;20164;-67
2021/11/27 04:13:18;;;;;;;0.47;0.25;;;;;;;9.51;54.58;98116.31;4425290;32;20100;-67
2021/11/27 04:15:44;;;;;;;4.37;0.50;;;;;;;9.45;54.81;98113.41;4424451;32;20021;-67
2021/11/27 04:18:10;;;;;;;1.95;0.30;;;;;;;9.95;53.21;98123.09;4422811;32;20056;-68
2021/11/27 04:20:37;;;;;;;0.95;0.30;;;;;;;9.68;53.56;98151.69;4422433;32;20854;-68
2021/11/27 04:23:03;;;;;;;0.47;0.22;;;;;;;9.86;53.06;98148.56;4421568;32;20038;-68
2021/11/27 04:25:29;;;;;;;0.10;0.00;;;;;;;9.57;54.08;98176.06;4424781;32;20470;-68
2021/11/27 04:27:56;;;;;;;0.17;0.10;;;;;;;9.32;54.29;98179.59;4420438;32;20077;-68
2021/11/27 04:30:24;;;;;;;2.10;0.10;;;;;;;9.51;53.73;98187.22;4422500;32;20506;-68
2021/11/27 04:32:51;;;;;;;0.47;0.00;;;;;;;9.44;53.94;98207.31;4423912;32;20076;-68
2021/11/27 04:35:18;;;;;;;0.10;0.00;;;;;;;10.00;52.51;98220.72;4427492;32;20099;-68
2021/11/27 04:37:44;;;;;;;0.45;0.00;;;;;;;9.38;53.39;98220.50;4422140;32;20104;-68
2021/11/27 04:40:12;;;;;;;0.22;0.00;;;;;;;9.66;52.74;98237.69;4421787;32;20854;-68
2021/11/27 04:42:38;;;;;;;0.10;0.00;;;;;;;10.04;51.44;98243.72;4422318;32;20034;-68
2021/11/27 04:45:06;;;;;;;0.15;0.00;;;;;;;9.10;53.84;98239.00;4421852;32;20037;-68
2021/11/27 04:47:32;;;;;;;0.00;0.00;;;;;;;9.18;54.08;98233.75;4416420;32;20073;-68
2021/11/27 04:49:57;;;;;;;0.00;0.00;;;;;;;9.19;53.50;98241.69;4421647;32;20136;-68
2021/11/27 04:52:24;;;;;;;0.10;0.00;;;;;;;9.38;53.94;98256.97;4422095;32;20450;-68
2021/11/27 04:54:51;;;;;;;0.00;0.00;;;;;;;9.67;53.02;98258.88;4421732;32;20030;-68
2021/11/27 04:57:17;;;;;;;0.00;0.00;;;;;;;9.31;53.98;98270.66;4424756;32;20069;-68
2021/11/27 04:59:43;;;;;;;0.47;0.00;;;;;;;9.49;52.96;98293.63;4423844;32;20087;-68
2021/11/27 05:02:09;;;;;;;0.00;0.00;;;;;;;9.56;53.09;98301.63;4423433;32;20100;-68
2021/11/27 05:04:35;;;;;;;0.00;0.00;;;;;;;9.57;52.72;98310.81;4423880;32;20056;-68
2021/11/27 05:07:01;;;;;;;0.13;0.03;;;;;;;9.36;53.08;98306.47;4420468;32;20109;-68
2021/11/27 05:09:27;;;;;;;0.00;0.00;;;;;;;9.35;52.74;98299.28;4424096;32;20018;-68
2021/11/27 05:11:53;;;;;;;0.00;0.00;;;;;;;8.72;53.90;98320.50;4424878;32;20067;-67
2021/11/27 05:14:18;;;;;;;0.47;0.10;;;;;;;8.89;53.33;98358.00;4424833;32;20092;-67
2021/11/27 05:16:44;;;;;;;0.00;0.00;;;;;;;8.71;53.56;98355.37;4423691;32;20038;-67
2021/11/27 05:19:10;;;;;;;0.10;0.00;;;;;;;8.48;53.95;98349.88;4422789;32;20119;-67
2021/11/27 05:21:36;;;;;;;0.00;0.00;;;;;;;8.43;54.26;98376.53;4424908;32;20103;-67
2021/11/27 05:24:01;;;;;;;0.00;0.00;;;;;;;8.06;55.36;98383.66;4424920;32;20077;-66
2021/11/27 05:26:27;;;;;;;0.00;0.00;;;;;;;8.14;55.21;98393.25;4423327;32;20063;-66
2021/11/27 05:28:53;;;;;;;0.65;0.10;;;;;;;8.71;54.03;98396.69;4424686;32;20063;-67
2021/11/27 05:31:21;;;;;;;0.00;0.00;;;;;;;8.54;54.04;98415.22;4424048;32;20034;-66
2021/11/27 05:36:22;;;;;;;0.00;0.00;;;;;;;8.98;53.55;98444.84;3962776;32;15022102;-66
2021/11/27 05:38:48;;;;;;;0.25;0.10;;;;;;;8.98;53.55;98444.84;4417378;32;20103;-66
2021/11/27 05:41:15;;;;;;;0.00;0.00;;;;;;;8.75;53.86;98451.31;4418150;32;20148;-67
2021/11/27 05:43:42;;;;;;;0.00;0.00;;;;;;;8.49;54.46;98444.69;4418391;32;20466;-67
2021/11/27 05:46:08;;;;;;;0.45;0.10;;;;;;;8.42;54.39;98444.28;4416794;32;20069;-67
2021/11/27 05:48:35;;;;;;;0.10;0.00;;;;;;;8.28;54.97;98445.78;4417929;32;20065;-68
2021/11/27 05:51:00;;;;;;;0.03;0.03;;;;;;;8.43;54.77;98445.84;4415150;32;20057;-68
2021/11/27 05:53:26;;;;;;;0.20;0.00;;;;;;;8.34;54.96;98454.31;4401435;32;20097;-68
2021/11/27 05:55:52;;;;;;;0.10;0.00;;;;;;;8.47;54.66;98454.84;4413994;32;20101;-68
2021/11/27 05:58:19;;;;;;;0.37;0.10;;;;;;;8.53;54.44;98464.88;4414589;32;20037;-68
2021/11/27 06:00:46;;;;;;;0.10;0.00;;;;;;;8.91;53.89;98478.13;4417647;32;20408;-68
2021/11/27 06:03:12;;;;;;;0.25;0.00;;;;;;;8.98;53.40;98480.53;4417665;32;20105;-68
2021/11/27 06:05:38;;;;;;;0.32;0.03;;;;;;;9.10;52.68;98488.69;4415889;32;20075;-68
2021/11/27 06:08:04;;;;;;;0.05;0.00;;;;;;;9.17;52.65;98491.09;4413795;32;20034;-69
2021/11/27 06:10:30;;;;;;;0.62;0.20;;;;;;;9.05;52.88;98497.75;4418238;32;20061;-69
2021/11/27 06:12:56;;;;;;;1.62;0.10;;;;;;;8.97;53.03;98509.84;4421240;32;20094;-69
2021/11/27 06:15:22;;;;;;;0.93;0.10;;;;;;;8.96;52.81;98505.50;4415969;32;20064;-70
2021/11/27 06:17:47;;;;;;;0.43;0.20;;;;;;;8.95;52.92;98507.53;4415894;32;20385;-70
2021/11/27 06:20:14;;;;;;;1.70;0.10;;;;;;;9.28;51.76;98513.75;4415944;32;20071;-70
2021/11/27 06:22:40;;;;;;;0.65;0.17;;;;;;;9.22;52.40;98515.69;4417299;32;20472;-70
2021/11/27 06:25:06;;;;;;;0.57;0.10;;;;;;;9.37;52.12;98527.69;4416467;32;20303;-70
2021/11/27 06:27:32;;;;;;;0.10;0.10;;;;;;;8.73;53.55;98526.72;4416067;32;20049;-70
2021/11/27 06:29:58;;;;;;;0.20;0.05;;;;;;;9.12;52.76;98553.50;4415516;32;20463;-71
2021/11/27 06:32:25;;;;;;;0.25;0.00;;;;;;;9.13;52.70;98555.06;4418158;32;20396;-71
2021/11/27 06:34:52;;;;;;;0.52;0.08;;;;;;;8.95;53.29;98558.00;4414261;32;20033;-71
2021/11/27 06:37:19;;;;;;;0.45;0.30;;;;;;;9.08;53.21;98572.53;4414749;32;20494;-72
2021/11/27 06:39:45;;;;;;;0.13;0.00;;;;;;;8.92;53.57;98569.41;4413138;32;20173;-70
2021/11/27 06:42:11;;;;;;;0.00;0.00;;;;;;;8.54;54.31;98544.16;4414917;32;20047;-71
2021/11/27 06:44:40;;;;;;;0.20;0.10;;;;;;;8.91;53.78;98568.66;4415993;32;20399;-70
2021/11/27 06:47:07;;;;;;;0.73;0.10;;;;;;;8.99;53.37;98586.62;4404986;32;20065;-70
2021/11/27 06:49:33;;;;;;;0.00;0.00;;;;;;;8.74;54.09;98606.00;4404599;32;20074;-69
2021/11/27 06:51:58;;;;;;;0.47;0.00;;;;;;;8.84;53.49;98613.09;4403643;32;20115;-69
2021/11/27 06:54:24;;;;;;;1.67;0.00;;;;;;;8.93;53.25;98630.63;4405765;32;20070;-69
2021/11/27 06:56:50;;;;;;;0.90;0.03;;;;;;;8.82;53.50;98633.22;4406725;32;20045;-69
2021/11/27 06:59:15;;;;;;;0.37;0.00;;;;;;;8.98;52.77;98644.00;4388730;32;20108;-69
2021/11/27 07:01:41;;;;;;;0.20;0.08;;;;;;;9.11;52.59;98644.53;4405486;32;20061;-69
2021/11/27 07:04:07;;;;;;;0.32;0.10;;;;;;;9.01;52.45;98665.50;4405517;32;20034;-71
2021/11/27 07:06:32;;;;;;;4.35;0.22;;;;;;;9.41;51.87;98679.84;4403158;32;20638;-70
2021/11/27 07:08:58;;;;;;;0.85;0.10;;;;;;;9.11;52.25;98678.19;4402787;32;20097;-70
2021/11/27 07:11:24;;;;;;;0.30;0.10;;;;;;;9.16;52.40;98677.53;4405209;32;20063;-70
2021/11/27 07:13:49;;;;;;;1.60;0.20;;;;;;;9.13;52.17;98681.31;4404996;32;20065;-70
2021/11/27 07:16:15;;;;;;;1.45;0.30;;;;;;;9.48;51.53;98689.94;4406206;32;20064;-70
2021/11/27 07:18:41;;;;;;;1.35;0.22;;;;;;;9.48;51.63;98690.69;4404126;32;20042;-70
2021/11/27 07:21:06;;;;;;;3.08;0.20;;;;;;;9.45;51.59;98688.84;4404964;32;20038;-70
2021/11/27 07:23:32;;;;;;;2.75;0.40;;;;;;;9.55;51.33;98686.75;4404222;32;20086;-71
2021/11/27 07:25:58;;;;;;;1.40;0.28;;;;;;;9.13;52.19;98691.75;4405880;32;20041;-71
2021/11/27 07:28:24;;;;;;;1.27;0.35;;;;;;;9.64;51.10;98701.47;4402675;32;20026;-71
2021/11/27 07:30:49;;;;;;;2.30;0.40;;;;;;;9.65;51.32;98705.84;4406542;32;20034;-71
2021/11/27 07:33:17;;;;;;;0.93;0.30;;;;;;;9.73;50.95;98709.81;4404013;32;20038;-71
2021/11/27 07:35:43;;;;;;;2.97;0.50;;;;;;;9.36;52.04;98710.63;4405289;32;20050;-71
2021/11/27 07:38:09;;;;;;;8.73;0.88;;;;;;;9.48;51.22;98706.78;4403547;32;20556;-70
2021/11/27 07:40:34;;;;;;;8.43;1.33;;;;;;;9.27;52.14;98716.28;4402674;32;20099;-70
2021/11/27 07:43:01;;;;;;;10.13;1.90;;;;;;;8.76;53.55;98733.25;4404330;32;20045;-70
2021/11/27 07:45:30;;;;;;;12.27;2.12;;;;;;;8.99;53.01;98731.75;4402640;32;20041;-70
2021/11/27 07:47:55;;;;;;;14.80;2.42;;;;;;;8.68;54.44;98745.31;4404523;32;20549;-71
2021/11/27 07:50:21;;;;;;;16.95;2.37;;;;;;;9.07;53.12;98749.75;4404240;32;20053;-71
2021/11/27 07:52:47;;;;;;;23.35;2.85;;;;;;;9.02;53.55;98745.56;4406296;32;20078;-70
2021/11/27 07:55:13;;;;;;;17.85;2.67;;;;;;;9.31;53.14;98768.19;4402008;32;20056;-68
2021/11/27 07:57:39;;;;;;;22.23;4.00;;;;;;;8.89;54.76;98761.06;4401553;32;20050;-70
2021/11/27 08:00:06;;;;;;;20.73;2.67;;;;;;;9.30;54.08;98766.63;4401905;32;20535;-71
2021/11/27 08:02:32;;;;;;;27.52;2.62;;;;;;;9.54;53.32;98775.81;4404750;32;20130;-69
2021/11/27 08:04:57;;;;;;;28.62;3.22;;;;;;;8.91;55.24;98779.00;4401466;32;20147;-69
2021/11/27 08:07:23;;;;;;;21.55;2.92;;;;;;;9.60;53.15;98804.78;4404648;32;20061;-69
2021/11/27 08:09:49;;;;;;;22.40;3.22;;;;;;;9.62;53.14;98807.13;4404176;32;20038;-70
2021/11/27 08:12:15;;;;;;;21.67;3.20;;;;;;;9.65;53.08;98812.56;4402965;32;20060;-69
2021/11/27 08:14:41;;;;;;;31.87;3.80;;;;;;;10.13;51.89;98821.75;4404029;32;20054;-69
2021/11/27 08:17:07;;;;;;;21.87;3.37;;;;;;;10.07;51.88;98818.78;4401971;32;20155;-69
2021/11/27 08:19:33;;;;;;;32.33;3.03;;;;;;;9.74;52.60;98818.13;4399744;32;20541;-69
2021/11/27 08:21:59;;;;;;;24.45;3.10;;;;;;;9.66;52.35;98833.75;4403012;32;20132;-70
2021/11/27 08:24:26;;;;;;;23.35;3.25;;;;;;;9.69;52.19;98829.22;4405766;32;20042;-69
2021/11/27 08:26:52;;;;;;;16.30;2.05;;;;;;;9.71;52.37;98840.75;4401858;32;20409;-69
2021/11/27 08:29:18;;;;;;;22.95;2.45;;;;;;;9.87;52.44;98851.56;4405173;32;20073;-69
2021/11/27 08:31:46;;;;;;;26.45;3.05;;;;;;;9.80;52.10;98858.34;4404427;32;20034;-69
2021/11/27 08:34:13;;;;;;;18.37;2.30;;;;;;;9.94;52.10;98866.03;4390673;32;20073;-69
2021/11/27 08:36:39;;;;;;;30.75;2.95;;;;;;;10.07;51.72;98875.00;4406039;32;20052;-69
2021/11/27 08:39:04;;;;;;;30.08;2.65;;;;;;;9.94;51.67;98880.06;4399394;32;20073;-69
2021/11/27 08:41:30;;;;;;;26.00;2.85;;;;;;;9.90;51.71;98889.94;4405181;32;20074;-69
2021/11/27 08:43:56;;;;;;;21.55;2.72;;;;;;;10.44;51.13;98886.75;4400552;32;20093;-69
2021/11/27 08:46:22;;;;;;;20.05;2.55;;;;;;;10.45;51.05;98898.75;4405919;32;20109;-69
2021/11/27 08:48:48;;;;;;;22.73;3.55;;;;;;;10.50;50.83;98903.72;4402623;32;20061;-68
2021/11/27 08:51:14;;;;;;;28.92;3.95;;;;;;;10.23;50.88;98901.91;4403214;32;20034;-68
2021/11/27 08:53:40;;;;;;;16.77;2.90;;;;;;;10.22;50.75;98908.78;4400383;32;20073;-68
2021/11/27 08:56:07;;;;;;;23.15;2.87;;;;;;;10.26;50.95;98906.56;4402222;32;20065;-68
2021/11/27 08:58:34;;;;;;;23.42;2.75;;;;;;;9.81;51.59;98918.87;4400592;32;20397;-68
2021/11/27 09:01:00;;;;;;;19.95;3.65;;;;;;;10.56;49.97;98925.06;4403536;32;20388;-68
2021/11/27 09:03:25;;;;;;;21.67;3.00;;;;;;;10.53;49.96;98919.63;4402943;32;20122;-68
2021/11/27 09:05:51;;;;;;;17.58;2.30;;;;;;;10.52;49.88;98923.69;4389064;32;20511;-69
2021/11/27 09:08:19;;;;;;;22.50;2.45;;;;;;;10.62;49.92;98925.94;4399242;32;20106;-69
2021/11/27 09:10:47;;;;;;;21.40;2.62;;;;;;;10.39;49.41;98938.00;4402809;32;20034;-71
2021/11/27 09:13:14;;;;;;;25.05;3.10;;;;;;;11.00;48.88;98933.53;4403675;32;20082;-70
2021/11/27 09:15:40;;;;;;;25.85;3.00;;;;;;;10.57;49.26;98934.25;4404343;32;20038;-71
2021/11/27 09:18:08;;;;;;;26.05;3.58;;;;;;;10.34;49.30;98943.53;4404182;32;20442;-70
2021/11/27 09:20:35;;;;;;;22.30;3.33;;;;;;;10.74;48.50;98943.81;4402593;32;20097;-68
2021/11/27 09:23:01;;;;;;;25.62;3.92;;;;;;;10.85;48.17;98966.50;4386783;32;20138;-68
2021/11/27 09:25:28;;;;;;;19.73;3.15;;;;;;;10.67;49.03;98978.72;4400990;32;20161;-69
2021/11/27 09:27:55;;;;;;;13.75;2.37;;;;;;;10.59;48.91;98974.72;4403002;32;20099;-69
2021/11/27 09:30:21;;;;;;;15.68;2.95;;;;;;;11.01;48.39;98975.28;4388212;32;20056;-69
2021/11/27 09:32:47;;;;;;;23.83;2.40;;;;;;;11.34;47.38;98973.06;4404178;32;20060;-69
2021/11/27 09:35:13;;;;;;;16.92;2.25;;;;;;;10.94;47.66;98981.28;4403970;32;20118;-69
2021/11/27 09:37:40;;;;;;;17.15;2.40;;;;;;;11.34;47.04;98984.31;4402595;32;20069;-69
2021/11/27 09:40:07;;;;;;;17.62;2.55;;;;;;;11.08;47.40;98976.94;4398565;32;20106;-69
2021/11/27 09:42:34;;;;;;;16.37;2.10;;;;;;;10.67;47.95;99012.47;4402172;32;20088;-69
2021/11/27 09:45:01;;;;;;;21.17;3.03;;;;;;;10.89;47.37;99004.47;4405432;32;20023;-69
2021/11/27 09:47:27;;;;;;;12.88;1.95;;;;;;;10.55;48.18;99013.50;4399836;32;20039;-70
2021/11/27 09:49:56;;;;;;;15.00;2.40;;;;;;;10.71;47.88;99015.88;4402665;32;20073;-70
2021/11/27 09:52:22;;;;;;;18.75;2.50;;;;;;;10.94;48.21;99008.66;4402653;32;20137;-70
2021/11/27 09:54:50;;;;;;;23.30;2.40;;;;;;;10.84;47.81;99010.78;4399953;32;20047;-70
2021/11/27 09:57:15;;;;;;;22.58;3.35;;;;;;;11.16;46.83;98994.97;4403405;32;20510;-70
2021/11/27 09:59:43;;;;;;;15.95;2.08;;;;;;;10.84;47.09;99015.63;4400347;32;20023;-70
2021/11/27 10:02:11;;;;;;;29.52;2.83;;;;;;;11.21;46.13;99014.03;4401496;32;20152;-71
2021/11/27 10:04:40;;;;;;;19.45;1.98;;;;;;;10.99;46.90;99028.47;4402029;32;20096;-70
2021/11/27 10:07:10;;;;;;;13.60;2.05;;;;;;;10.67;48.04;99040.59;4400193;32;20086;-70
2021/11/27 10:09:36;;;;;;;18.58;2.55;;;;;;;10.89;47.69;99045.91;4398332;32;20069;-70
2021/11/27 10:12:07;;;;;;;29.52;2.70;;;;;;;10.40;48.59;99031.59;4402217;32;20133;-70
2021/11/27 10:14:39;;;;;;;17.52;2.55;;;;;;;10.82;47.54;99043.44;4402584;32;20077;-71
2021/11/27 10:22:21;;;;;;;18.40;3.10;;;;;;;11.24;46.31;99039.19;3989019;32;15027209;-71
2021/11/27 10:24:50;;;;;;;19.60;2.25;;;;;;;11.24;46.31;99039.19;4447037;32;20054;-71
2021/11/27 10:27:20;;;;;;;14.27;2.03;;;;;;;10.93;46.52;99038.06;4447523;32;20116;-72
2021/11/27 10:29:56;;;;;;;21.73;1.95;;;;;;;10.82;46.75;99075.19;4446963;32;20067;-72
2021/11/27 10:32:28;;;;;;;14.13;2.50;;;;;;;11.20;46.19;99058.28;4447032;32;20073;-72
2021/11/27 10:34:55;;;;;;;19.33;3.65;;;;;;;11.01;46.63;99059.72;4446475;32;20044;-72
2021/11/27 10:37:42;;;;;;;11.75;2.30;;;;;;;11.63;45.63;99063.19;4448106;32;20089;-72
2021/11/27 10:40:28;;;;;;;17.20;2.35;;;;;;;11.72;44.44;99073.63;4447853;32;20048;-72
2021/11/27 10:42:57;;;;;;;19.77;2.22;;;;;;;12.12;43.84;99082.19;4448008;32;20083;-71
2021/11/27 10:45:29;;;;;;;18.92;1.83;;;;;;;11.58;45.07;99103.31;4446493;32;20164;-70
2021/11/27 10:48:16;;;;;;;14.85;2.00;;;;;;;11.47;45.75;99088.22;4444218;32;20029;-71
2021/11/27 10:56:10;;;;;;;12.90;1.85;;;;;;;10.86;47.24;99115.16;3983842;32;15021662;-70
2021/11/27 10:58:59;;;;;;;14.68;2.10;;;;;;;10.86;47.52;99117.97;4437988;32;20110;-70
2021/11/27 11:01:26;;;;;;;13.55;1.70;;;;;;;11.08;46.41;99112.81;4434996;32;20057;-69
2021/11/27 11:03:51;;;;;;;17.60;1.92;;;;;;;10.36;48.03;99141.41;4440309;32;20026;-71
2021/11/27 11:06:21;;;;;;;15.15;2.08;;;;;;;10.59;47.31;99120.19;4439179;32;20067;-70
2021/11/27 11:08:49;;;;;;;11.80;1.27;;;;;;;10.98;46.60;99125.41;4439250;32;20382;-70
2021/11/27 11:13:58;;;;;;;14.52;1.60;;;;;;;11.24;45.08;99131.31;3983241;32;15025713;-70
2021/11/27 11:16:27;;;;;;;16.95;2.00;;;;;;;11.24;45.08;99131.31;4431104;32;20071;-70
2021/11/27 11:19:16;;;;;;;12.98;2.25;;;;;;;11.20;44.36;99133.53;4432088;32;20355;-70
2021/11/27 11:24:45;;;;;;;14.93;1.58;;;;;;;11.92;43.01;99172.34;3985188;32;15015944;-70
2021/11/27 11:27:27;;;;;;;17.48;3.08;;;;;;;11.92;43.01;99172.34;4437350;32;20028;-70
2021/11/27 11:29:52;;;;;;;16.87;2.22;;;;;;;11.90;42.62;99138.22;4438481;32;20068;-70
2021/11/27 11:32:22;;;;;;;20.30;2.65;;;;;;;11.87;42.18;99176.59;4439279;32;20093;-70
2021/11/27 11:34:51;;;;;;;15.32;1.90;;;;;;;11.70;42.06;99174.75;4436340;32;20141;-70
2021/11/27 11:37:16;;;;;;;17.80;2.62;;;;;;;11.91;41.79;99176.44;4436969;32;20044;-70
2021/11/27 11:39:43;;;;;;;16.27;2.25;;;;;;;12.27;41.56;99187.28;4434427;32;20085;-70
2021/11/27 11:42:09;;;;;;;21.35;3.15;;;;;;;12.62;40.63;99196.59;4438768;32;20033;-70
2021/11/27 11:44:37;;;;;;;14.40;2.00;;;;;;;12.37;41.19;99191.59;4438265;32;20072;-71
2021/11/27 11:47:03;;;;;;;15.50;2.15;;;;;;;12.37;41.19;99190.78;4437897;32;20057;-70
2021/11/27 11:49:29;;;;;;;16.95;2.67;;;;;;;12.31;41.37;99196.34;4434289;32;20040;-70
2021/11/27 11:52:02;;;;;;;16.83;2.37;;;;;;;12.05;41.79;99198.97;4436602;32;20033;-70
2021/11/27 11:54:30;;;;;;;16.70;2.35;;;;;;;12.43;41.21;99191.66;4436817;32;20080;-70